createdAt,value
2022-10-19T00:00:23.252Z,102342.75
2022-10-19T00:03:46.618Z,102342.75
2022-10-19T00:07:09.868Z,102343.59
2022-10-19T00:10:31.096Z,102338.44
2022-10-19T00:13:53.453Z,102348.28
2022-10-19T00:17:14.897Z,102350.09
2022-10-19T00:20:37.919Z,102344.75
2022-10-19T00:24:00.880Z,102347.34
2022-10-19T00:27:22.281Z,102363.25
2022-10-19T00:30:44.057Z,102364.19
2022-10-19T00:34:05.909Z,102369.25
2022-10-19T00:37:27.561Z,102361.31
2022-10-19T00:40:50.559Z,102363.91
2022-10-19T00:44:45.095Z,102355.91
2022-10-19T00:48:07.114Z,102362.94
2022-10-19T00:51:30.438Z,102363.91
2022-10-19T00:54:54.824Z,102361.13
2022-10-19T00:58:18.220Z,102354.94
2022-10-19T01:01:39.707Z,102359.41
2022-10-19T01:05:02.692Z,102356.66
2022-10-19T01:08:24.887Z,102359.19
2022-10-19T01:11:57.883Z,102360.28
2022-10-19T01:15:33.666Z,102353.97
2022-10-19T01:19:04.311Z,102356.66
2022-10-19T01:22:35.420Z,102353.22
2022-10-19T01:26:05.227Z,102358.56
2022-10-19T01:29:44.157Z,102355.91
2022-10-19T01:33:19.410Z,102347.88
2022-10-19T01:36:44.941Z,102347.00
2022-10-19T01:40:11.227Z,102353.22
2022-10-19T01:43:41.993Z,102343.50
2022-10-19T01:47:08.213Z,102338.03
2022-10-19T01:50:36.892Z,102332.81
2022-10-19T01:54:03.051Z,102327.47
2022-10-19T01:57:31.329Z,102326.72
2022-10-19T02:00:55.877Z,102326.72
2022-10-19T02:04:20.807Z,102327.56
2022-10-19T02:07:47.430Z,102326.81
2022-10-19T02:11:09.339Z,102319.75
2022-10-19T02:14:34.751Z,102313.75
2022-10-19T02:17:59.813Z,102326.34
2022-10-19T02:21:21.384Z,102325.59
2022-10-19T02:24:44.318Z,102325.72
2022-10-19T02:28:06.887Z,102334.78
2022-10-19T02:31:28.765Z,102330.50
2022-10-19T02:34:50.296Z,102334.97
2022-10-19T02:38:16.865Z,102335.16
2022-10-19T02:41:45.680Z,102337.06
2022-10-19T02:45:12.071Z,102331.72
2022-10-19T02:48:36.160Z,102337.06
2022-10-19T02:52:01.109Z,102335.28
2022-10-19T02:55:22.467Z,102337.06
2022-10-19T02:58:45.047Z,102333.66
2022-10-19T03:02:06.672Z,102333.66
2022-10-19T03:05:28.462Z,102329.34
2022-10-19T03:08:50.330Z,102329.47
2022-10-19T03:12:12.535Z,102327.00
2022-10-19T03:15:35.322Z,102331.66
2022-10-19T03:18:56.655Z,102344.94
2022-10-19T03:22:17.864Z,102348.75
2022-10-19T03:25:39.757Z,102341.50
2022-10-19T03:29:01.090Z,102337.97
2022-10-19T03:32:24.096Z,102339.78
2022-10-19T03:35:45.952Z,102343.22
2022-10-19T03:39:09.688Z,102338.72
2022-10-19T03:42:31.190Z,102353.03
2022-10-19T03:45:52.530Z,102358.28
2022-10-19T03:49:15.404Z,102359.03
2022-10-19T03:52:36.557Z,102358.28
2022-10-19T03:56:02.210Z,102370.75
2022-10-19T03:59:24.359Z,102358.38
2022-10-19T04:02:45.875Z,102370.88
2022-10-19T04:06:12.627Z,102375.47
2022-10-19T04:09:34.164Z,102363.06
2022-10-19T04:12:56.016Z,102370.97
2022-10-19T04:16:17.889Z,102385.25
2022-10-19T04:19:39.622Z,102391.75
2022-10-19T04:23:02.157Z,102389.97
2022-10-19T04:26:23.590Z,102394.34
2022-10-19T04:29:44.915Z,102385.47
2022-10-19T04:33:06.180Z,102399.75
2022-10-19T04:36:27.532Z,102401.66
2022-10-19T04:39:50.564Z,102407.84
2022-10-19T04:43:11.721Z,102404.25
2022-10-19T04:46:32.905Z,102405.97
2022-10-19T04:49:54.606Z,102418.53
2022-10-19T04:53:15.950Z,102410.63
2022-10-19T04:56:40.993Z,102422.81
2022-10-19T05:00:02.308Z,102417.28
2022-10-19T05:03:24.313Z,102420.06
2022-10-19T05:06:45.812Z,102421.03
2022-10-19T05:10:09.706Z,102414.06
2022-10-19T05:13:33.784Z,102423.97
2022-10-19T05:16:55.033Z,102416.81
2022-10-19T05:20:16.526Z,102416.94
2022-10-19T05:23:38.239Z,102419.47
2022-10-19T05:27:00.032Z,102420.28
2022-10-19T05:30:22.705Z,102423.69
2022-10-19T05:33:44.657Z,102417.50
2022-10-19T05:37:06.021Z,102413.03
2022-10-19T05:40:27.531Z,102418.38
2022-10-19T05:43:53.325Z,102418.38
2022-10-19T05:47:16.361Z,102427.00
2022-10-19T05:50:38.109Z,102427.78
2022-10-19T05:54:40.748Z,102435.03
2022-10-19T05:58:02.592Z,102437.59
2022-10-19T06:01:24.597Z,102428.84
2022-10-19T06:04:47.896Z,102441.50
2022-10-19T06:08:09.376Z,102444.94
2022-10-19T06:11:34.521Z,102437.81
2022-10-19T06:14:56.138Z,102442.19
2022-10-19T06:18:17.556Z,102448.38
2022-10-19T06:21:43.393Z,102452.00
2022-10-19T06:25:08.174Z,102461.63
2022-10-19T06:28:29.680Z,102462.47
2022-10-19T06:31:52.119Z,102467.94
2022-10-19T06:35:14.093Z,102473.75
2022-10-19T06:38:37.331Z,102474.69
2022-10-19T06:41:59.307Z,102468.59
2022-10-19T06:45:20.622Z,102472.09
2022-10-19T06:49:19.125Z,102478.69
2022-10-19T06:53:06.213Z,102477.84
2022-10-19T06:56:29.642Z,102488.22
2022-10-19T06:59:52.980Z,102483.19
2022-10-19T07:03:15.221Z,102488.31
2022-10-19T07:06:36.447Z,102490.41
2022-10-19T07:09:58.327Z,102493.84
2022-10-19T07:13:37.497Z,102499.84
2022-10-19T07:17:38.215Z,102497.72
2022-10-19T07:21:05.035Z,102504.59
2022-10-19T07:24:27.588Z,102509.75
2022-10-19T07:27:50.764Z,102516.63
2022-10-19T07:31:30.279Z,102526.25
2022-10-19T07:34:59.633Z,102522.75
2022-10-19T07:38:25.984Z,102528.91
2022-10-19T07:41:48.352Z,102533.13
2022-10-19T07:45:10.889Z,102533.13
2022-10-19T07:48:35.923Z,102534.63
2022-10-19T07:51:57.751Z,102535.31
2022-10-19T07:55:19.800Z,102538.75
2022-10-19T07:58:43.222Z,102540.47
2022-10-19T08:02:08.145Z,102543.22
2022-10-19T08:05:33.645Z,102532.38
2022-10-19T08:08:56.428Z,102533.16
2022-10-19T08:12:17.975Z,102538.38
2022-10-19T08:15:39.237Z,102532.00
2022-10-19T08:19:02.467Z,102531.81
2022-10-19T08:22:25.350Z,102538.56
2022-10-19T08:25:47.903Z,102541.31
2022-10-19T08:29:15.757Z,102539.50
2022-10-19T08:32:40.875Z,102544.59
2022-10-19T08:36:05.959Z,102554.19
2022-10-19T08:39:29.233Z,102558.69
2022-10-19T08:42:59.027Z,102559.44
2022-10-19T08:46:26.454Z,102554.75
2022-10-19T08:49:49.960Z,102561.53
2022-10-19T08:53:23.829Z,102564.97
2022-10-19T08:56:59.385Z,102553.34
2022-10-19T09:00:34.144Z,102548.75
2022-10-19T09:04:03.350Z,102550.13
2022-10-19T09:07:28.556Z,102553.66
2022-10-19T09:10:52.580Z,102559.38
2022-10-19T09:14:20.801Z,102551.28
2022-10-19T09:17:43.019Z,102556.44
2022-10-19T09:21:09.034Z,102560.41
2022-10-19T09:24:37.759Z,102552.00
2022-10-19T09:28:07.812Z,102560.38
2022-10-19T09:31:37.058Z,102573.94
2022-10-19T09:35:03.998Z,102578.34
2022-10-19T09:38:29.535Z,102583.59
2022-10-19T09:41:54.906Z,102568.22
2022-10-19T09:45:22.045Z,102573.94
2022-10-19T09:48:50.509Z,102577.38
2022-10-19T09:52:26.824Z,102574.75
2022-10-19T09:55:52.573Z,102571.22
2022-10-19T09:59:24.400Z,102578.09
2022-10-19T10:02:50.410Z,102576.16
2022-10-19T10:06:16.545Z,102584.19
2022-10-19T10:09:43.972Z,102591.91
2022-10-19T10:13:06.610Z,102594.69
2022-10-19T10:16:33.124Z,102598.63
2022-10-19T10:20:19.415Z,102604.06
2022-10-19T10:23:42.548Z,102607.56
2022-10-19T10:27:31.874Z,102605.97
2022-10-19T10:30:59.485Z,102609.41
2022-10-19T10:34:38.755Z,102605.50
2022-10-19T10:38:13.641Z,102599.41
2022-10-19T10:41:43.183Z,102601.72
2022-10-19T10:45:20.821Z,102604.47
2022-10-19T10:48:46.447Z,102599.69
2022-10-19T10:52:13.243Z,102590.69
2022-10-19T10:55:35.541Z,102603.56
2022-10-19T10:59:02.941Z,102594.88
2022-10-19T11:02:40.219Z,102603.97
2022-10-19T11:06:02.798Z,102602.50
2022-10-19T11:09:35.757Z,102602.19
2022-10-19T11:13:04.286Z,102599.09
2022-10-19T11:16:33.448Z,102606.94
2022-10-19T11:19:55.543Z,102611.22
2022-10-19T11:23:28.009Z,102612.06
2022-10-19T11:27:07.201Z,102620.84
2022-10-19T11:30:33.893Z,102617.44
2022-10-19T11:34:11.977Z,102616.78
2022-10-19T11:38:00.385Z,102619.13
2022-10-19T11:41:38.720Z,102606.63
2022-10-19T11:45:15.571Z,102601.50
2022-10-19T11:48:56.626Z,102598.69
2022-10-19T11:52:36.088Z,102597.72
2022-10-19T11:56:04.569Z,102598.56
2022-10-19T11:59:40.165Z,102596.09
2022-10-19T12:03:34.337Z,102588.28
2022-10-19T12:07:05.517Z,102587.66
2022-10-19T12:14:41.472Z,102581.88
2022-10-19T12:18:08.730Z,102581.81
2022-10-19T12:21:34.796Z,102585.66
2022-10-19T12:24:59.338Z,102582.31
2022-10-19T12:28:28.663Z,102588.53
2022-10-19T12:32:03.662Z,102585.53
2022-10-19T12:35:50.421Z,102574.06
2022-10-19T12:39:22.670Z,102577.72
2022-10-19T12:43:05.055Z,102566.91
2022-10-19T12:46:45.224Z,102560.09
2022-10-19T12:53:52.791Z,102571.94
2022-10-19T12:57:27.160Z,102560.28
2022-10-19T13:01:15.861Z,102553.78
2022-10-19T13:04:52.566Z,102553.44
2022-10-19T13:08:43.045Z,102556.41
2022-10-19T13:12:28.661Z,102557.31
2022-10-19T13:15:52.747Z,102560.69
2022-10-19T13:19:24.775Z,102568.03
2022-10-19T13:23:13.124Z,102569.78
2022-10-19T13:26:35.987Z,102561.31
2022-10-19T13:29:57.703Z,102562.06
2022-10-19T13:33:53.500Z,102560.81
2022-10-19T13:37:20.224Z,102565.28
2022-10-19T13:41:01.454Z,102562.06
2022-10-19T13:44:27.653Z,102559.94
2022-10-19T13:47:56.505Z,102557.59
2022-10-19T13:51:31.788Z,102555.75
2022-10-19T13:55:17.127Z,102551.69
2022-10-19T13:59:13.618Z,102560.28
2022-10-19T14:03:11.989Z,102557.59
2022-10-19T14:06:40.657Z,102547.94
2022-10-19T14:10:09.397Z,102550.41
2022-10-19T14:13:52.838Z,102547.63
2022-10-19T14:17:27.750Z,102548.59
2022-10-19T14:21:06.876Z,102542.59
2022-10-19T14:24:31.661Z,102544.75
2022-10-19T14:28:13.746Z,102539.47
2022-10-19T14:31:38.554Z,102540.97
2022-10-19T14:35:26.002Z,102542.69
2022-10-19T14:38:50.756Z,102536.81
2022-10-19T14:42:12.585Z,102530.47
2022-10-19T14:45:35.900Z,102539.25
2022-10-19T14:49:07.064Z,102545.38
2022-10-19T14:52:38.371Z,102537.25
2022-10-19T14:56:07.796Z,102541.31
2022-10-19T14:59:36.093Z,102540.00
2022-10-19T15:03:05.229Z,102544.28
2022-10-19T15:06:42.637Z,102541.53
2022-10-19T15:10:10.614Z,102540.97
2022-10-19T15:13:35.933Z,102537.91
2022-10-19T15:17:01.395Z,102535.00
2022-10-19T15:20:28.057Z,102536.72
2022-10-19T15:23:52.446Z,102545.81
2022-10-19T15:27:24.575Z,102542.38
2022-10-19T15:30:48.181Z,102546.91
2022-10-19T15:38:09.971Z,102533.91
2022-10-19T15:41:33.844Z,102541.19
2022-10-19T15:44:58.231Z,102534.06
2022-10-19T15:48:30.738Z,102531.94
2022-10-19T15:51:52.806Z,102538.69
2022-10-19T15:55:20.614Z,102530.22
2022-10-19T15:58:42.181Z,102540.47
2022-10-19T16:02:16.045Z,102540.00
2022-10-19T16:05:37.731Z,102548.78
2022-10-19T16:09:02.558Z,102561.22
2022-10-19T16:12:25.322Z,102555.06
2022-10-19T16:16:01.336Z,102558.75
2022-10-19T16:19:34.793Z,102563.38
2022-10-19T16:22:57.744Z,102564.44
2022-10-19T16:26:19.831Z,102575.22
2022-10-19T16:29:43.457Z,102572.63
2022-10-19T16:33:06.060Z,102578.88
2022-10-19T16:36:35.159Z,102578.09
2022-10-19T16:40:10.019Z,102577.69
2022-10-19T16:43:34.328Z,102586.41
2022-10-19T16:47:01.418Z,102598.88
2022-10-19T16:50:24.772Z,102605.00
2022-10-19T16:53:50.417Z,102595.13
2022-10-19T16:57:13.269Z,102600.28
2022-10-19T17:00:42.279Z,102601.03
2022-10-19T17:04:05.692Z,102603.34
2022-10-19T17:07:29.085Z,102606.63
2022-10-19T17:10:53.151Z,102603.63
2022-10-19T17:14:14.748Z,102607.66
2022-10-19T17:17:38.065Z,102615.47
2022-10-19T17:21:03.458Z,102611.66
2022-10-19T17:24:27.940Z,102617.47
2022-10-19T17:27:53.969Z,102626.84
2022-10-19T17:31:17.344Z,102617.56
2022-10-19T17:34:39.340Z,102618.88
2022-10-19T17:38:04.867Z,102629.22
2022-10-19T17:41:31.820Z,102633.09
2022-10-19T17:44:58.033Z,102635.06
2022-10-19T17:48:19.709Z,102634.28
2022-10-19T17:51:44.853Z,102636.31
2022-10-19T17:55:12.039Z,102647.31
2022-10-19T17:58:39.142Z,102640.63
2022-10-19T18:02:09.356Z,102646.19
2022-10-19T18:05:30.803Z,102647.25
2022-10-19T18:08:55.264Z,102646.78
2022-10-19T18:12:23.045Z,102651.75
2022-10-19T18:15:44.419Z,102654.84
2022-10-19T18:19:09.750Z,102648.94
2022-10-19T18:26:05.800Z,102656.81
2022-10-19T18:29:32.877Z,102652.69
2022-10-19T18:32:54.471Z,102650.25
2022-10-19T18:36:18.346Z,102651.44
2022-10-19T18:39:42.949Z,102650.94
2022-10-19T18:43:04.632Z,102652.94
2022-10-19T18:46:29.163Z,102646.09
2022-10-19T18:50:45.514Z,102657.66
2022-10-19T18:59:03.977Z,102645.31
2022-10-19T19:07:40.432Z,102647.66
2022-10-19T19:11:21.336Z,102646.91
2022-10-19T19:14:45.206Z,102655.88
2022-10-19T19:22:43.333Z,102644.59
2022-10-19T19:26:20.465Z,102653.00
2022-10-19T19:30:07.711Z,102647.25
2022-10-19T19:33:37.956Z,102654.53
2022-10-19T19:37:21.883Z,102653.00
2022-10-19T19:44:47.882Z,102653.13
2022-10-19T19:48:13.597Z,102660.47
2022-10-19T19:51:47.216Z,102656.41
2022-10-19T19:55:38.253Z,102654.09
2022-10-19T19:59:18.905Z,102654.34
2022-10-19T20:03:09.713Z,102655.59
2022-10-19T20:06:58.995Z,102656.66
2022-10-19T20:14:34.621Z,102671.88
2022-10-19T20:18:16.839Z,102670.19
2022-10-19T20:21:40.232Z,102673.88
2022-10-19T20:25:03.334Z,102676.53
2022-10-19T20:28:28.921Z,102686.28
2022-10-19T20:31:50.323Z,102681.28
2022-10-19T20:35:12.223Z,102670.03
2022-10-19T20:38:33.861Z,102668.63
2022-10-19T20:42:02.095Z,102668.91
2022-10-19T20:45:26.143Z,102666.44
2022-10-19T20:48:48.155Z,102672.72
2022-10-19T20:52:11.487Z,102678.13
2022-10-19T20:55:35.718Z,102662.47
2022-10-19T20:59:00.530Z,102665.31
2022-10-19T21:02:28.513Z,102665.44
2022-10-19T21:05:51.235Z,102675.22
2022-10-19T21:09:14.453Z,102673.59
2022-10-19T21:12:43.917Z,102678.06
2022-10-19T21:16:11.066Z,102676.38
2022-10-19T21:19:32.833Z,102678.22
2022-10-19T21:22:59.249Z,102677.63
2022-10-19T21:26:21.567Z,102685.72
2022-10-19T21:33:52.800Z,102679.97
2022-10-19T21:37:18.875Z,102685.47
2022-10-19T21:40:48.083Z,102681.19
2022-10-19T21:44:23.033Z,102677.97
2022-10-19T21:47:44.878Z,102675.41
2022-10-19T21:51:20.047Z,102672.06
2022-10-19T21:54:41.993Z,102671.28
2022-10-19T21:58:04.576Z,102675.81
2022-10-19T22:01:27.997Z,102677.66
2022-10-19T22:04:49.880Z,102670.72
2022-10-19T22:08:12.875Z,102674.38
2022-10-19T22:11:34.657Z,102664.00
2022-10-19T22:14:56.017Z,102669.41
2022-10-19T22:18:17.367Z,102665.09
2022-10-19T22:21:39.348Z,102648.53
2022-10-19T22:25:02.334Z,102654.78
2022-10-19T22:28:24.505Z,102643.50
2022-10-19T22:31:45.871Z,102650.63
2022-10-19T22:35:08.017Z,102636.56
2022-10-19T22:38:29.952Z,102629.56
2022-10-19T22:41:53.028Z,102622.63
2022-10-19T22:45:14.360Z,102622.66
2022-10-19T22:48:36.818Z,102616.56
2022-10-19T22:51:58.391Z,102619.47
2022-10-19T22:55:19.863Z,102626.59
2022-10-19T22:58:42.910Z,102620.66
2022-10-19T23:02:05.169Z,102622.56
2022-10-19T23:05:26.887Z,102624.47
2022-10-19T23:08:49.057Z,102629.81
2022-10-19T23:12:10.730Z,102634.28
2022-10-19T23:15:34.039Z,102631.72
2022-10-19T23:18:55.970Z,102634.47
2022-10-19T23:22:17.761Z,102631.81
2022-10-19T23:25:39.847Z,102626.63
2022-10-19T23:29:01.676Z,102638.22
2022-10-19T23:32:24.450Z,102636.66
2022-10-19T23:35:45.877Z,102629.75
2022-10-19T23:39:07.163Z,102632.50
2022-10-19T23:42:29.062Z,102637.78
2022-10-19T23:45:50.209Z,102631.75
2022-10-19T23:49:12.737Z,102632.75
2022-10-19T23:52:34.316Z,102633.72
2022-10-19T23:56:00.283Z,102637.28
2022-10-19T23:59:22.092Z,102633.81
